Alief, Texas
Current Conditions -  °F | °C
As of 12:53 AM on Saturday 01 Nov 2014 (Local Time) from KSGR Reporting Station
Clear Clear  
Wind Chill: 54°   Ceiling: Unl
Heat Index: 54°   Visibility: 10mi
Dew Point: 45°   Wind: 7mph
Humidity: 72%   Direction: 360°N
Pressure: 30.28"   Gusts: NA
Location:  29.71°N, 95.6°W
Report Text: KSGR 010553Z AUTO 36006KT 10SM CLR 12/07 A3028 RMK AO2 SLP255 T01220072 10200 20122 402670122 51009
Loading
Personal Weather Stations






























Interactive Weather Map
Tropical Storm Tracking
New forecast layout! Learn more

10-Day Weather Forecast

Advertisements
Track Severe Weather on mobile